sensor_id;sensor_type;location;lat;lon;timestamp;pressure;altitude;pressure_sealevel;temperature;humidity
58843;BME280;44614;54.356;10.100;2023-02-01T00:00:05;100540.28;;;2.77;100.00
58843;BME280;44614;54.356;10.100;2023-02-01T00:02:30;100532.34;;;2.75;100.00
58843;BME280;44614;54.356;10.100;2023-02-01T00:04:55;100530.84;;;2.73;100.00
58843;BME280;44614;54.356;10.100;2023-02-01T00:07:21;100529.44;;;2.77;100.00
58843;BME280;44614;54.356;10.100;2023-02-01T00:09:46;100548.06;;;2.80;100.00
58843;BME280;44614;54.356;10.100;2023-02-01T00:12:11;100536.00;;;2.82;100.00
58843;BME280;44614;54.356;10.100;2023-02-01T00:14:37;100520.28;;;2.78;100.00
58843;BME280;44614;54.356;10.100;2023-02-01T00:17:07;100530.34;;;2.92;100.00
58843;BME280;44614;54.356;10.100;2023-02-01T00:19:33;100528.97;;;2.96;100.00
58843;BME280;44614;54.356;10.100;2023-02-01T00:21:59;100517.81;;;2.91;100.00
58843;BME280;44614;54.356;10.100;2023-02-01T00:24:24;100514.28;;;2.90;100.00
58843;BME280;44614;54.356;10.100;2023-02-01T00:26:49;100507.69;;;2.85;100.00
58843;BME280;44614;54.356;10.100;2023-02-01T00:29:17;100525.34;;;3.04;100.00
58843;BME280;44614;54.356;10.100;2023-02-01T00:31:44;100525.69;;;3.01;100.00
58843;BME280;44614;54.356;10.100;2023-02-01T00:34:11;100527.50;;;3.08;100.00
58843;BME280;44614;54.356;10.100;2023-02-01T00:36:37;100513.88;;;3.16;100.00
58843;BME280;44614;54.356;10.100;2023-02-01T00:39:03;100506.75;;;3.15;100.00
58843;BME280;44614;54.356;10.100;2023-02-01T00:41:28;100506.41;;;3.18;100.00
58843;BME280;44614;54.356;10.100;2023-02-01T00:43:54;100473.50;;;2.99;100.00
58843;BME280;44614;54.356;10.100;2023-02-01T00:46:19;100517.25;;;3.18;100.00
58843;BME280;44614;54.356;10.100;2023-02-01T00:48:45;100518.56;;;3.23;100.00
58843;BME280;44614;54.356;10.100;2023-02-01T00:51:13;100539.19;;;3.32;100.00
58843;BME280;44614;54.356;10.100;2023-02-01T00:53:39;100519.06;;;3.26;100.00
58843;BME280;44614;54.356;10.100;2023-02-01T00:56:05;100514.81;;;3.24;100.00
58843;BME280;44614;54.356;10.100;2023-02-01T00:58:31;100529.50;;;3.14;100.00
58843;BME280;44614;54.356;10.100;2023-02-01T01:03:25;100521.78;;;3.03;100.00
58843;BME280;44614;54.356;10.100;2023-02-01T01:05:51;100528.53;;;3.07;100.00
58843;BME280;44614;54.356;10.100;2023-02-01T01:08:16;100494.75;;;2.95;100.00
58843;BME280;44614;54.356;10.100;2023-02-01T01:10:42;100480.50;;;2.93;100.00
58843;BME280;44614;54.356;10.100;2023-02-01T01:13:08;100515.56;;;3.17;100.00
58843;BME280;44614;54.356;10.100;2023-02-01T01:15:37;100518.56;;;3.23;100.00
58843;BME280;44614;54.356;10.100;2023-02-01T01:18:03;100509.31;;;3.32;100.00
58843;BME280;44614;54.356;10.100;2023-02-01T01:20:29;100519.25;;;3.39;100.00
58843;BME280;44614;54.356;10.100;2023-02-01T01:22:54;100515.53;;;3.40;100.00
58843;BME280;44614;54.356;10.100;2023-02-01T01:25:19;100519.94;;;3.41;100.00
58843;BME280;44614;54.356;10.100;2023-02-01T01:27:45;100518.72;;;3.44;100.00
58843;BME280;44614;54.356;10.100;2023-02-01T01:30:10;100514.31;;;3.43;100.00
58843;BME280;44614;54.356;10.100;2023-02-01T01:32:35;100527.16;;;3.49;100.00
58843;BME280;44614;54.356;10.100;2023-02-01T01:35:01;100487.25;;;3.35;100.00
58843;BME280;44614;54.356;10.100;2023-02-01T01:37:26;100515.09;;;3.52;100.00
58843;BME280;44614;54.356;10.100;2023-02-01T01:39:51;100513.22;;;3.52;100.00
58843;BME280;44614;54.356;10.100;2023-02-01T01:42:17;100493.06;;;3.47;100.00
58843;BME280;44614;54.356;10.100;2023-02-01T01:45:02;100503.31;;;3.59;100.00
58843;BME280;44614;54.356;10.100;2023-02-01T01:47:40;100517.53;;;3.61;100.00
58843;BME280;44614;54.356;10.100;2023-02-01T01:50:10;100495.03;;;3.53;100.00
58843;BME280;44614;54.356;10.100;2023-02-01T01:52:38;100510.53;;;3.67;100.00
58843;BME280;44614;54.356;10.100;2023-02-01T01:55:05;100467.16;;;3.44;100.00
58843;BME280;44614;54.356;10.100;2023-02-01T01:57:38;100487.00;;;3.59;100.00
58843;BME280;44614;54.356;10.100;2023-02-01T02:00:11;100496.75;;;3.69;100.00
58843;BME280;44614;54.356;10.100;2023-02-01T02:02:38;100468.72;;;3.53;100.00
58843;BME280;44614;54.356;10.100;2023-02-01T02:05:04;100496.75;;;3.69;100.00
58843;BME280;44614;54.356;10.100;2023-02-01T02:07:34;100490.66;;;3.66;100.00
58843;BME280;44614;54.356;10.100;2023-02-01T02:10:03;100477.72;;;3.54;100.00
58843;BME280;44614;54.356;10.100;2023-02-01T02:12:31;100483.16;;;3.69;100.00
58843;BME280;44614;54.356;10.100;2023-02-01T02:14:57;100469.47;;;3.62;100.00
58843;BME280;44614;54.356;10.100;2023-02-01T02:17:30;100485.50;;;3.72;100.00
58843;BME280;44614;54.356;10.100;2023-02-01T02:29:01;100472.31;;;3.69;100.00
58843;BME280;44614;54.356;10.100;2023-02-01T02:39:50;100458.81;;;3.75;100.00
58843;BME280;44614;54.356;10.100;2023-02-01T02:42:29;100469.84;;;3.74;100.00
58843;BME280;44614;54.356;10.100;2023-02-01T02:45:28;100459.84;;;3.74;100.00
58843;BME280;44614;54.356;10.100;2023-02-01T02:48:20;100412.47;;;3.47;100.00
58843;BME280;44614;54.356;10.100;2023-02-01T02:56:41;100426.59;;;3.57;100.00
58843;BME280;44614;54.356;10.100;2023-02-01T02:59:26;100444.19;;;3.76;100.00
58843;BME280;44614;54.356;10.100;2023-02-01T03:02:12;100426.81;;;3.71;100.00
58843;BME280;44614;54.356;10.100;2023-02-01T03:04:57;100436.31;;;3.81;100.00
58843;BME280;44614;54.356;10.100;2023-02-01T03:13:22;100420.88;;;3.82;100.00
58843;BME280;44614;54.356;10.100;2023-02-01T03:18:36;100380.53;;;3.64;100.00
58843;BME280;44614;54.356;10.100;2023-02-01T03:21:15;100404.13;;;3.78;100.00
58843;BME280;44614;54.356;10.100;2023-02-01T03:23:42;100392.78;;;3.75;100.00
58843;BME280;44614;54.356;10.100;2023-02-01T03:26:11;100381.34;;;3.79;100.00
58843;BME280;44614;54.356;10.100;2023-02-01T03:28:43;100388.47;;;3.80;100.00
58843;BME280;44614;54.356;10.100;2023-02-01T03:31:10;100392.84;;;3.81;100.00
58843;BME280;44614;54.356;10.100;2023-02-01T03:33:36;100397.44;;;3.81;100.00
58843;BME280;44614;54.356;10.100;2023-02-01T03:36:15;100398.28;;;3.81;100.00
58843;BME280;44614;54.356;10.100;2023-02-01T03:38:50;100389.31;;;3.81;100.00
58843;BME280;44614;54.356;10.100;2023-02-01T03:41:32;100382.66;;;3.83;100.00
58843;BME280;44614;54.356;10.100;2023-02-01T03:44:23;100407.31;;;3.82;100.00
58843;BME280;44614;54.356;10.100;2023-02-01T03:46:57;100402.03;;;3.80;100.00
58843;BME280;44614;54.356;10.100;2023-02-01T03:49:32;100401.88;;;3.67;100.00
58843;BME280;44614;54.356;10.100;2023-02-01T03:51:59;100383.16;;;3.42;100.00
58843;BME280;44614;54.356;10.100;2023-02-01T03:54:26;100398.25;;;3.45;100.00
58843;BME280;44614;54.356;10.100;2023-02-01T03:56:54;100393.75;;;3.37;100.00
58843;BME280;44614;54.356;10.100;2023-02-01T03:59:21;100372.31;;;3.28;100.00
58843;BME280;44614;54.356;10.100;2023-02-01T04:01:46;100373.19;;;3.28;100.00
58843;BME280;44614;54.356;10.100;2023-02-01T04:04:11;100372.13;;;3.29;100.00
58843;BME280;44614;54.356;10.100;2023-02-01T04:06:48;100354.81;;;3.15;100.00
58843;BME280;44614;54.356;10.100;2023-02-01T04:09:14;100367.81;;;3.20;100.00
58843;BME280;44614;54.356;10.100;2023-02-01T04:11:39;100351.34;;;3.07;100.00
58843;BME280;44614;54.356;10.100;2023-02-01T04:14:04;100357.34;;;3.02;100.00
58843;BME280;44614;54.356;10.100;2023-02-01T04:16:33;100332.34;;;2.92;100.00
58843;BME280;44614;54.356;10.100;2023-02-01T04:18:59;100354.63;;;3.02;100.00
58843;BME280;44614;54.356;10.100;2023-02-01T04:21:25;100345.19;;;2.98;100.00
58843;BME280;44614;54.356;10.100;2023-02-01T04:23:51;100341.44;;;2.99;100.00
58843;BME280;44614;54.356;10.100;2023-02-01T04:26:16;100353.31;;;2.98;100.00
58843;BME280;44614;54.356;10.100;2023-02-01T04:28:44;100337.78;;;2.92;100.00
58843;BME280;44614;54.356;10.100;2023-02-01T04:31:14;100321.03;;;2.88;100.00
58843;BME280;44614;54.356;10.100;2023-02-01T04:33:40;100333.38;;;2.91;100.00
58843;BME280;44614;54.356;10.100;2023-02-01T04:36:05;100312.03;;;2.73;100.00
58843;BME280;44614;54.356;10.100;2023-02-01T04:38:31;100326.47;;;2.88;100.00
58843;BME280;44614;54.356;10.100;2023-02-01T04:40:57;100321.03;;;2.88;100.00
58843;BME280;44614;54.356;10.100;2023-02-01T04:43:23;100310.84;;;2.76;100.00
58843;BME280;44614;54.356;10.100;2023-02-01T04:45:49;100335.75;;;2.94;100.00
58843;BME280;44614;54.356;10.100;2023-02-01T04:48:15;100340.13;;;2.95;100.00
58843;BME280;44614;54.356;10.100;2023-02-01T04:50:42;100335.06;;;2.92;100.00
58843;BME280;44614;54.356;10.100;2023-02-01T04:53:08;100314.66;;;2.81;100.00
58843;BME280;44614;54.356;10.100;2023-02-01T04:55:34;100328.13;;;2.89;100.00
58843;BME280;44614;54.356;10.100;2023-02-01T04:57:59;100327.66;;;2.86;100.00
58843;BME280;44614;54.356;10.100;2023-02-01T05:00:24;100303.25;;;2.71;100.00
58843;BME280;44614;54.356;10.100;2023-02-01T05:02:50;100334.31;;;2.83;100.00
58843;BME280;44614;54.356;10.100;2023-02-01T05:05:15;100301.47;;;2.63;100.00
58843;BME280;44614;54.356;10.100;2023-02-01T05:07:40;100291.47;;;2.64;100.00
58843;BME280;44614;54.356;10.100;2023-02-01T05:10:06;100326.34;;;2.82;100.00
58843;BME280;44614;54.356;10.100;2023-02-01T05:12:32;100323.16;;;2.78;100.00
58843;BME280;44614;54.356;10.100;2023-02-01T05:15:16;100330.09;;;2.81;100.00
58843;BME280;44614;54.356;10.100;2023-02-01T05:17:41;100322.16;;;2.79;100.00
58843;BME280;44614;54.356;10.100;2023-02-01T05:20:08;100318.97;;;2.76;100.00
58843;BME280;44614;54.356;10.100;2023-02-01T05:22:34;100318.03;;;2.83;100.00
58843;BME280;44614;54.356;10.100;2023-02-01T05:24:59;100332.44;;;2.84;100.00
58843;BME280;44614;54.356;10.100;2023-02-01T05:27:24;100320.56;;;2.85;100.00
58843;BME280;44614;54.356;10.100;2023-02-01T05:29:50;100313.81;;;2.81;100.00
58843;BME280;44614;54.356;10.100;2023-02-01T05:32:15;100312.25;;;2.86;100.00
58843;BME280;44614;54.356;10.100;2023-02-01T05:34:41;100330.59;;;2.99;100.00
58843;BME280;44614;54.356;10.100;2023-02-01T05:37:06;100334.59;;;3.03;100.00
58843;BME280;44614;54.356;10.100;2023-02-01T05:39:31;100327.03;;;2.99;100.00
58843;BME280;44614;54.356;10.100;2023-02-01T05:41:57;100318.69;;;3.00;100.00
58843;BME280;44614;54.356;10.100;2023-02-01T05:44:22;100330.03;;;3.04;100.00
58843;BME280;44614;54.356;10.100;2023-02-01T05:46:47;100343.31;;;3.13;100.00
58843;BME280;44614;54.356;10.100;2023-02-01T05:49:12;100338.53;;;3.15;100.00
58843;BME280;44614;54.356;10.100;2023-02-01T05:51:38;100247.25;;;2.63;100.00
58843;BME280;44614;54.356;10.100;2023-02-01T05:54:03;100306.06;;;3.07;100.00
58843;BME280;44614;54.356;10.100;2023-02-01T05:56:29;100348.75;;;3.13;100.00
58843;BME280;44614;54.356;10.100;2023-02-01T05:58:54;100326.56;;;3.10;100.00
58843;BME280;44614;54.356;10.100;2023-02-01T06:01:19;100319.28;;;3.10;100.00
58843;BME280;44614;54.356;10.100;2023-02-01T06:03:45;100324.22;;;3.07;100.00
58843;BME280;44614;54.356;10.100;2023-02-01T06:06:10;100322.16;;;3.09;100.00
58843;BME280;44614;54.356;10.100;2023-02-01T06:08:35;100304.56;;;2.90;100.00
58843;BME280;44614;54.356;10.100;2023-02-01T06:11:03;100322.56;;;3.06;100.00
58843;BME280;44614;54.356;10.100;2023-02-01T06:13:29;100304.66;;;2.97;100.00
58843;BME280;44614;54.356;10.100;2023-02-01T06:15:54;100308.53;;;3.02;100.00
58843;BME280;44614;54.356;10.100;2023-02-01T06:18:20;100305.69;;;2.96;100.00
58843;BME280;44614;54.356;10.100;2023-02-01T06:20:54;100320.78;;;2.98;100.00
58843;BME280;44614;54.356;10.100;2023-02-01T06:23:19;100310.94;;;2.97;100.00
58843;BME280;44614;54.356;10.100;2023-02-01T06:25:51;100306.91;;;2.93;100.00
58843;BME280;44614;54.356;10.100;2023-02-01T06:28:17;100294.75;;;2.89;100.00
58843;BME280;44614;54.356;10.100;2023-02-01T06:30:42;100300.84;;;2.91;100.00
58843;BME280;44614;54.356;10.100;2023-02-01T06:33:13;100296.50;;;2.82;100.00
58843;BME280;44614;54.356;10.100;2023-02-01T06:35:42;100309.34;;;2.88;100.00
58843;BME280;44614;54.356;10.100;2023-02-01T06:38:12;100313.09;;;2.87;100.00
58843;BME280;44614;54.356;10.100;2023-02-01T06:40:39;100316.81;;;2.86;100.00
58843;BME280;44614;54.356;10.100;2023-02-01T06:43:04;100308.19;;;2.82;100.00
58843;BME280;44614;54.356;10.100;2023-02-01T06:45:30;100278.44;;;2.59;100.00
58843;BME280;44614;54.356;10.100;2023-02-01T06:47:55;100311.31;;;2.79;100.00
58843;BME280;44614;54.356;10.100;2023-02-01T06:50:20;100322.16;;;2.79;100.00
58843;BME280;44614;54.356;10.100;2023-02-01T06:52:46;100313.72;;;2.74;100.00
58843;BME280;44614;54.356;10.100;2023-02-01T06:55:11;100309.31;;;2.73;100.00
58843;BME280;44614;54.356;10.100;2023-02-01T06:57:38;100283.22;;;2.57;100.00
58843;BME280;44614;54.356;10.100;2023-02-01T07:00:06;100312.16;;;2.80;100.00
58843;BME280;44614;54.356;10.100;2023-02-01T07:02:31;100300.16;;;2.74;100.00
58843;BME280;44614;54.356;10.100;2023-02-01T07:04:57;100311.13;;;2.81;100.00
58843;BME280;44614;54.356;10.100;2023-02-01T07:07:22;100312.63;;;2.83;100.00
58843;BME280;44614;54.356;10.100;2023-02-01T07:09:50;100319.91;;;2.83;100.00
58843;BME280;44614;54.356;10.100;2023-02-01T07:12:16;100317.38;;;2.81;100.00
58843;BME280;44614;54.356;10.100;2023-02-01T07:14:41;100320.91;;;2.82;100.00
58843;BME280;44614;54.356;10.100;2023-02-01T07:17:07;100328.97;;;2.90;100.00
58843;BME280;44614;54.356;10.100;2023-02-01T07:19:32;100330.69;;;2.91;100.00
58843;BME280;44614;54.356;10.100;2023-02-01T07:21:57;100318.59;;;2.93;100.00
58843;BME280;44614;54.356;10.100;2023-02-01T07:24:23;100320.47;;;2.93;100.00
58843;BME280;44614;54.356;10.100;2023-02-01T07:26:48;100323.66;;;2.97;100.00
58843;BME280;44614;54.356;10.100;2023-02-01T07:29:16;100318.59;;;2.93;100.00
58843;BME280;44614;54.356;10.100;2023-02-01T07:31:42;100318.44;;;2.95;100.00
58843;BME280;44614;54.356;10.100;2023-02-01T07:34:07;100314.47;;;2.98;100.00
58843;BME280;44614;54.356;10.100;2023-02-01T07:36:32;100317.28;;;3.04;100.00
58843;BME280;44614;54.356;10.100;2023-02-01T07:38:59;100330.50;;;3.07;100.00
58843;BME280;44614;54.356;10.100;2023-02-01T07:41:24;100330.13;;;3.10;100.00
58843;BME280;44614;54.356;10.100;2023-02-01T07:43:52;100325.44;;;3.04;100.00
58843;BME280;44614;54.356;10.100;2023-02-01T07:46:18;100315.88;;;3.08;100.00
58843;BME280;44614;54.356;10.100;2023-02-01T07:48:43;100325.28;;;3.21;100.00
58843;BME280;44614;54.356;10.100;2023-02-01T07:51:11;100332.16;;;3.23;100.00
58843;BME280;44614;54.356;10.100;2023-02-01T07:53:37;100336.03;;;3.29;100.00
58843;BME280;44614;54.356;10.100;2023-02-01T07:56:03;100332.91;;;3.32;100.00
58843;BME280;44614;54.356;10.100;2023-02-01T07:58:29;100334.88;;;3.38;100.00
58843;BME280;44614;54.356;10.100;2023-02-01T08:00:55;100307.75;;;3.23;100.00
58843;BME280;44614;54.356;10.100;2023-02-01T08:03:40;100343.13;;;3.45;100.00
58843;BME280;44614;54.356;10.100;2023-02-01T08:06:06;100326.25;;;3.49;100.00
58843;BME280;44614;54.356;10.100;2023-02-01T08:08:32;100327.56;;;3.53;100.00
58843;BME280;44614;54.356;10.100;2023-02-01T08:10:58;100298.66;;;3.31;100.00
58843;BME280;44614;54.356;10.100;2023-02-01T08:13:24;100334.28;;;3.57;100.00
58843;BME280;44614;54.356;10.100;2023-02-01T08:15:49;100330.16;;;3.61;100.00
58843;BME280;44614;54.356;10.100;2023-02-01T08:18:15;100332.69;;;3.63;100.00
58843;BME280;44614;54.356;10.100;2023-02-01T08:20:43;100345.03;;;3.65;100.00
58843;BME280;44614;54.356;10.100;2023-02-01T08:23:11;100341.03;;;3.61;100.00
58843;BME280;44614;54.356;10.100;2023-02-01T08:25:37;100332.88;;;3.61;100.00
58843;BME280;44614;54.356;10.100;2023-02-01T08:28:04;100303.44;;;3.44;100.00
58843;BME280;44614;54.356;10.100;2023-02-01T08:30:30;100350.75;;;3.71;100.00
58843;BME280;44614;54.356;10.100;2023-02-01T08:32:55;100342.63;;;3.71;100.00
58843;BME280;44614;54.356;10.100;2023-02-01T08:35:20;100340.91;;;3.70;100.00
58843;BME280;44614;54.356;10.100;2023-02-01T08:37:45;100352.31;;;3.80;100.00
58843;BME280;44614;54.356;10.100;2023-02-01T08:40:11;100355.28;;;3.85;100.00
58843;BME280;44614;54.356;10.100;2023-02-01T08:42:38;100363.06;;;3.88;100.00
58843;BME280;44614;54.356;10.100;2023-02-01T08:45:20;100359.88;;;3.84;100.00
58843;BME280;44614;54.356;10.100;2023-02-01T08:47:46;100361.38;;;3.87;100.00
58843;BME280;44614;54.356;10.100;2023-02-01T08:50:14;100338.09;;;3.78;100.00
58843;BME280;44614;54.356;10.100;2023-02-01T08:52:41;100348.84;;;3.86;100.00
58843;BME280;44614;54.356;10.100;2023-02-01T08:55:07;100351.56;;;3.86;100.00
58843;BME280;44614;54.356;10.100;2023-02-01T08:57:35;100342.75;;;3.84;100.00
58843;BME280;44614;54.356;10.100;2023-02-01T09:00:01;100355.75;;;3.88;100.00
58843;BME280;44614;54.356;10.100;2023-02-01T09:02:26;100301.69;;;3.57;100.00
58843;BME280;44614;54.356;10.100;2023-02-01T09:04:52;100364.53;;;4.05;100.00
58843;BME280;44614;54.356;10.100;2023-02-01T09:07:18;100352.88;;;4.11;100.00
58843;BME280;44614;54.356;10.100;2023-02-01T09:09:44;100363.06;;;4.24;100.00
58843;BME280;44614;54.356;10.100;2023-02-01T09:12:09;100349.59;;;4.37;100.00
58843;BME280;44614;54.356;10.100;2023-02-01T09:14:35;100328.50;;;4.39;100.00
58843;BME280;44614;54.356;10.100;2023-02-01T09:17:00;100350.16;;;4.54;100.00
58843;BME280;44614;54.356;10.100;2023-02-01T09:19:26;100350.72;;;4.50;100.00
58843;BME280;44614;54.356;10.100;2023-02-01T09:21:51;100344.84;;;4.46;100.00
58843;BME280;44614;54.356;10.100;2023-02-01T09:24:16;100323.63;;;4.35;100.00
58843;BME280;44614;54.356;10.100;2023-02-01T09:26:42;100333.28;;;4.37;100.00
58843;BME280;44614;54.356;10.100;2023-02-01T09:29:07;100330.47;;;4.31;100.00
58843;BME280;44614;54.356;10.100;2023-02-01T09:31:36;100299.28;;;4.27;100.00
58843;BME280;44614;54.356;10.100;2023-02-01T09:34:02;100332.75;;;4.49;100.00
58843;BME280;44614;54.356;10.100;2023-02-01T09:36:28;100328.53;;;4.46;100.00
58843;BME280;44614;54.356;10.100;2023-02-01T09:38:56;100337.59;;;4.53;100.00
58843;BME280;44614;54.356;10.100;2023-02-01T09:44:01;100337.41;;;4.55;100.00
58843;BME280;44614;54.356;10.100;2023-02-01T09:46:32;100336.38;;;4.56;100.00
58843;BME280;44614;54.356;10.100;2023-02-01T09:49:03;100330.09;;;4.55;100.00
58843;BME280;44614;54.356;10.100;2023-02-01T09:51:36;100330.34;;;4.60;100.00
58843;BME280;44614;54.356;10.100;2023-02-01T09:54:13;100318.41;;;4.61;100.00
58843;BME280;44614;54.356;10.100;2023-02-01T09:56:47;100307.16;;;4.64;100.00
58843;BME280;44614;54.356;10.100;2023-02-01T10:01:49;100284.00;;;4.47;100.00
58843;BME280;44614;54.356;10.100;2023-02-01T10:04:15;100313.41;;;4.65;100.00
58843;BME280;44614;54.356;10.100;2023-02-01T10:06:57;100309.22;;;4.62;100.00
58843;BME280;44614;54.356;10.100;2023-02-01T10:25:56;100312.84;;;4.70;100.00
58843;BME280;44614;54.356;10.100;2023-02-01T10:28:24;100312.88;;;4.76;100.00
58843;BME280;44614;54.356;10.100;2023-02-01T10:30:54;100302.50;;;4.86;100.00
58843;BME280;44614;54.356;10.100;2023-02-01T10:33:34;100295.00;;;4.95;100.00
58843;BME280;44614;54.356;10.100;2023-02-01T10:36:10;100275.72;;;4.90;100.00
58843;BME280;44614;54.356;10.100;2023-02-01T10:38:38;100296.56;;;5.11;100.00
58843;BME280;44614;54.356;10.100;2023-02-01T10:41:12;100281.72;;;5.13;100.00
58843;BME280;44614;54.356;10.100;2023-02-01T10:43:38;100255.78;;;5.18;100.00
58843;BME280;44614;54.356;10.100;2023-02-01T10:46:04;100270.91;;;5.27;100.00
58843;BME280;44614;54.356;10.100;2023-02-01T10:48:31;100247.44;;;5.26;100.00
58843;BME280;44614;54.356;10.100;2023-02-01T10:51:03;100277.91;;;5.49;100.00
58843;BME280;44614;54.356;10.100;2023-02-01T10:53:49;100283.38;;;5.56;100.00
58843;BME280;44614;54.356;10.100;2023-02-01T10:56:22;100262.41;;;5.56;99.18
58843;BME280;44614;54.356;10.100;2023-02-01T10:58:48;100276.69;;;5.58;99.20
58843;BME280;44614;54.356;10.100;2023-02-01T11:01:20;100264.53;;;5.54;99.30
58843;BME280;44614;54.356;10.100;2023-02-01T11:03:55;100257.56;;;5.45;100.00
58843;BME280;44614;54.356;10.100;2023-02-01T11:08:56;100234.22;;;5.16;100.00
58843;BME280;44614;54.356;10.100;2023-02-01T11:11:23;100245.06;;;5.09;99.08
58843;BME280;44614;54.356;10.100;2023-02-01T11:13:58;100238.13;;;5.00;97.61
58843;BME280;44614;54.356;10.100;2023-02-01T11:16:35;100248.13;;;4.93;97.32
58843;BME280;44614;54.356;10.100;2023-02-01T11:19:01;100227.38;;;4.85;98.00
58843;BME280;44614;54.356;10.100;2023-02-01T11:21:27;100238.25;;;4.92;100.00
58843;BME280;44614;54.356;10.100;2023-02-01T11:23:53;100234.53;;;4.93;100.00
58843;BME280;44614;54.356;10.100;2023-02-01T11:26:24;100231.19;;;4.98;100.00
58843;BME280;44614;54.356;10.100;2023-02-01T11:29:10;100211.25;;;4.91;100.00
58843;BME280;44614;54.356;10.100;2023-02-01T11:31:38;100220.34;;;5.04;100.00
58843;BME280;44614;54.356;10.100;2023-02-01T11:34:07;100217.84;;;5.09;100.00
58843;BME280;44614;54.356;10.100;2023-02-01T11:36:36;100217.44;;;5.12;100.00
58843;BME280;44614;54.356;10.100;2023-02-01T11:39:18;100217.03;;;5.16;100.00
58843;BME280;44614;54.356;10.100;2023-02-01T11:42:24;100183.50;;;5.08;100.00
58843;BME280;44614;54.356;10.100;2023-02-01T11:44:50;100163.38;;;5.03;100.00
58843;BME280;44614;54.356;10.100;2023-02-01T11:47:19;100193.41;;;5.23;100.00
58843;BME280;44614;54.356;10.100;2023-02-01T11:49:45;100184.59;;;5.21;100.00
58843;BME280;44614;54.356;10.100;2023-02-01T12:00:47;100229.31;;;4.63;100.00
58843;BME280;44614;54.356;10.100;2023-02-01T12:20:22;100200.53;;;4.20;100.00
58843;BME280;44614;54.356;10.100;2023-02-01T12:25:33;100183.63;;;4.18;100.00
58843;BME280;44614;54.356;10.100;2023-02-01T12:28:11;100176.53;;;4.23;100.00
58843;BME280;44614;54.356;10.100;2023-02-01T12:35:47;100152.88;;;4.17;100.00
58843;BME280;44614;54.356;10.100;2023-02-01T12:38:24;100176.41;;;4.31;100.00
58843;BME280;44614;54.356;10.100;2023-02-01T12:40:56;100182.69;;;4.32;100.00
58843;BME280;44614;54.356;10.100;2023-02-01T12:43:47;100174.31;;;4.33;100.00
58843;BME280;44614;54.356;10.100;2023-02-01T12:46:29;100173.72;;;4.38;100.00
58843;BME280;44614;54.356;10.100;2023-02-01T12:49:15;100182.75;;;4.45;100.00
58843;BME280;44614;54.356;10.100;2023-02-01T12:51:44;100194.91;;;4.49;100.00
58843;BME280;44614;54.356;10.100;2023-02-01T12:54:34;100212.78;;;4.58;100.00
58843;BME280;44614;54.356;10.100;2023-02-01T12:57:30;100199.22;;;4.72;100.00
58843;BME280;44614;54.356;10.100;2023-02-01T13:02:47;100197.44;;;4.85;100.00
58843;BME280;44614;54.356;10.100;2023-02-01T13:05:24;100195.59;;;4.93;100.00
58843;BME280;44614;54.356;10.100;2023-02-01T13:08:00;100163.94;;;4.85;100.00
58843;BME280;44614;54.356;10.100;2023-02-01T13:10:34;100183.69;;;5.00;100.00
58843;BME280;44614;54.356;10.100;2023-02-01T13:13:12;100192.69;;;5.01;100.00
58843;BME280;44614;54.356;10.100;2023-02-01T13:15:51;100188.88;;;4.95;100.00
58843;BME280;44614;54.356;10.100;2023-02-01T13:18:24;100197.22;;;4.87;100.00
58843;BME280;44614;54.356;10.100;2023-02-01T13:21:02;100200.19;;;4.57;100.00
58843;BME280;44614;54.356;10.100;2023-02-01T13:23:31;100234.22;;;4.47;100.00
58843;BME280;44614;54.356;10.100;2023-02-01T13:25:58;100208.69;;;4.20;100.00
58843;BME280;44614;54.356;10.100;2023-02-01T13:40:05;100198.03;;;4.18;100.00
58843;BME280;44614;54.356;10.100;2023-02-01T13:45:20;100194.03;;;4.14;100.00
58843;BME280;44614;54.356;10.100;2023-02-01T13:47:49;100195.72;;;4.15;100.00
58843;BME280;44614;54.356;10.100;2023-02-01T13:50:28;100195.25;;;4.11;100.00
58843;BME280;44614;54.356;10.100;2023-02-01T13:53:30;100201.75;;;4.10;100.00
58843;BME280;44614;54.356;10.100;2023-02-01T13:56:16;100201.13;;;4.15;100.00
58843;BME280;44614;54.356;10.100;2023-02-01T13:58:44;100211.41;;;4.20;100.00
58843;BME280;44614;54.356;10.100;2023-02-01T14:03:57;100215.44;;;4.24;100.00
58843;BME280;44614;54.356;10.100;2023-02-01T14:16:39;100185.47;;;4.45;100.00
58843;BME280;44614;54.356;10.100;2023-02-01T14:19:08;100191.56;;;4.47;100.00
58843;BME280;44614;54.356;10.100;2023-02-01T14:21:47;100199.72;;;4.47;100.00
58843;BME280;44614;54.356;10.100;2023-02-01T14:24:34;100202.44;;;4.47;100.00
58843;BME280;44614;54.356;10.100;2023-02-01T14:29:40;100202.88;;;4.51;100.00
58843;BME280;44614;54.356;10.100;2023-02-01T14:32:22;100218.84;;;4.60;100.00
58843;BME280;44614;54.356;10.100;2023-02-01T14:34:55;100140.56;;;4.21;100.00
58843;BME280;44614;54.356;10.100;2023-02-01T14:37:31;100207.56;;;4.63;100.00
58843;BME280;44614;54.356;10.100;2023-02-01T14:42:44;100209.41;;;4.56;100.00
58843;BME280;44614;54.356;10.100;2023-02-01T14:57:54;100240.09;;;4.22;100.00
58843;BME280;44614;54.356;10.100;2023-02-01T15:00:26;100265.00;;;4.26;100.00
58843;BME280;44614;54.356;10.100;2023-02-01T15:02:54;100231.13;;;4.00;100.00
58843;BME280;44614;54.356;10.100;2023-02-01T15:05:32;100258.47;;;4.20;100.00
58843;BME280;44614;54.356;10.100;2023-02-01T15:08:05;100233.06;;;4.06;100.00
58843;BME280;44614;54.356;10.100;2023-02-01T15:10:33;100257.63;;;4.20;100.00